createdAt,value
2019-01-20T00:00:57.755Z,461.07
2019-01-20T00:03:26.156Z,510.57
2019-01-20T00:05:54.637Z,528.80
2019-01-20T00:08:23.071Z,515.10
2019-01-20T00:10:52.466Z,508.57
2019-01-20T00:13:20.927Z,513.17
2019-01-20T00:15:49.498Z,466.37
2019-01-20T00:18:17.927Z,471.13
2019-01-20T00:20:46.322Z,474.27
2019-01-20T00:23:14.995Z,475.50
2019-01-20T00:25:43.411Z,527.50
2019-01-20T00:28:11.873Z,515.90
2019-01-20T00:30:40.312Z,426.97
2019-01-20T00:33:08.708Z,423.97
2019-01-20T00:35:37.112Z,441.20
2019-01-20T00:38:05.821Z,455.33
2019-01-20T00:40:34.240Z,485.90
2019-01-20T00:43:02.776Z,508.97
2019-01-20T00:45:31.366Z,508.40
2019-01-20T00:47:59.911Z,540.83
2019-01-20T00:50:28.367Z,516.77
2019-01-20T00:52:56.819Z,488.23
2019-01-20T00:55:25.289Z,408.70
2019-01-20T00:57:53.694Z,442.17
2019-01-20T01:00:25.204Z,401.10
2019-01-20T01:02:53.611Z,234.47
2019-01-20T01:05:22.091Z,182.60
2019-01-20T01:07:52.019Z,194.83
2019-01-20T01:10:20.415Z,252.87
2019-01-20T01:12:49.804Z,290.10
2019-01-20T01:15:18.246Z,390.37
2019-01-20T01:17:46.658Z,390.10
2019-01-20T01:20:17.607Z,330.23
2019-01-20T01:22:46.187Z,403.07
2019-01-20T01:25:16.019Z,389.37
2019-01-20T01:27:44.418Z,372.67
2019-01-20T01:30:16.346Z,319.57
2019-01-20T01:32:44.788Z,291.73
2019-01-20T01:35:13.328Z,272.50
2019-01-20T01:37:41.768Z,279.07
2019-01-20T01:40:12.709Z,274.90
2019-01-20T01:42:41.311Z,269.70
2019-01-20T01:45:15.002Z,280.93
2019-01-20T01:47:43.409Z,288.33
2019-01-20T01:50:12.939Z,280.10
2019-01-20T01:52:41.374Z,285.83
2019-01-20T01:55:10.508Z,288.97
2019-01-20T01:57:43.133Z,297.43
2019-01-20T02:00:20.215Z,311.83
2019-01-20T02:02:48.807Z,354.47
2019-01-20T02:05:17.225Z,345.30
2019-01-20T02:07:45.727Z,354.70
2019-01-20T02:10:16.366Z,354.83
2019-01-20T02:12:51.944Z,347.73
2019-01-20T02:15:21.811Z,365.30
2019-01-20T02:17:50.215Z,363.83
2019-01-20T02:20:23.282Z,385.87
2019-01-20T02:22:51.818Z,403.30
2019-01-20T02:25:20.596Z,407.33
2019-01-20T02:27:49.919Z,401.80
2019-01-20T02:30:23.622Z,373.30
2019-01-20T02:32:52.213Z,362.27
2019-01-20T02:35:20.870Z,345.60
2019-01-20T02:37:49.379Z,327.57
2019-01-20T02:40:17.954Z,307.87
2019-01-20T02:42:46.497Z,300.87
2019-01-20T02:45:15.934Z,293.20
2019-01-20T02:47:44.334Z,342.17
2019-01-20T02:50:15.478Z,368.27
2019-01-20T02:52:43.867Z,373.77
2019-01-20T02:55:12.373Z,353.20
2019-01-20T02:57:40.883Z,282.20
2019-01-20T03:00:22.824Z,273.33
2019-01-20T03:02:51.333Z,300.43
2019-01-20T03:05:20.870Z,298.97
2019-01-20T03:07:49.273Z,290.80
2019-01-20T03:10:17.764Z,315.10
2019-01-20T03:12:46.159Z,308.40
2019-01-20T03:15:14.925Z,307.97
2019-01-20T03:17:44.467Z,300.07
2019-01-20T03:20:16.208Z,288.00
2019-01-20T03:22:44.676Z,290.73
2019-01-20T03:25:15.063Z,298.10
2019-01-20T03:27:43.574Z,312.30
2019-01-20T03:30:14.957Z,306.53
2019-01-20T03:32:43.408Z,309.90
2019-01-20T03:35:12.644Z,299.77
2019-01-20T03:37:41.187Z,266.63
2019-01-20T03:40:12.692Z,284.70
2019-01-20T03:42:41.254Z,286.87
2019-01-20T03:45:12.683Z,286.43
2019-01-20T03:47:41.156Z,289.57
2019-01-20T03:50:11.736Z,285.40
2019-01-20T03:52:40.144Z,285.73
2019-01-20T03:55:14.189Z,287.50
2019-01-20T03:57:42.583Z,283.13
2019-01-20T04:00:14.263Z,290.10
2019-01-20T04:02:42.879Z,320.67
2019-01-20T04:05:11.283Z,291.50
2019-01-20T04:07:39.679Z,295.00
2019-01-20T04:10:15.892Z,300.07
2019-01-20T04:12:44.298Z,285.53
2019-01-20T04:15:14.397Z,289.83
2019-01-20T04:17:42.830Z,304.70
2019-01-20T04:20:13.828Z,303.47
2019-01-20T04:22:42.233Z,302.57
2019-01-20T04:25:16.173Z,300.17
2019-01-20T04:27:44.571Z,324.63
2019-01-20T04:30:17.680Z,310.80
2019-01-20T04:32:46.277Z,322.70
2019-01-20T04:35:14.683Z,353.13
2019-01-20T04:37:43.115Z,349.40
2019-01-20T04:40:14.677Z,348.33
2019-01-20T04:42:43.218Z,328.23
2019-01-20T04:45:13.461Z,324.03
2019-01-20T04:47:41.897Z,315.83
2019-01-20T04:50:13.824Z,324.17
2019-01-20T04:52:42.295Z,321.43
2019-01-20T04:55:13.571Z,320.17
2019-01-20T04:57:43.300Z,334.90
2019-01-20T05:00:14.764Z,329.57
2019-01-20T05:02:43.199Z,336.93
2019-01-20T05:05:11.595Z,357.37
2019-01-20T05:07:39.998Z,355.20
2019-01-20T05:10:11.393Z,345.47
2019-01-20T05:12:39.791Z,331.67
2019-01-20T05:15:11.138Z,317.70
2019-01-20T05:17:39.648Z,307.07
2019-01-20T05:20:09.783Z,283.67
2019-01-20T05:22:39.257Z,327.53
2019-01-20T05:25:09.844Z,315.80
2019-01-20T05:27:38.431Z,332.70
2019-01-20T05:30:10.120Z,321.27
2019-01-20T05:32:38.767Z,290.00
2019-01-20T05:35:08.806Z,297.90
2019-01-20T05:37:37.276Z,310.93
2019-01-20T05:40:08.780Z,330.53
2019-01-20T05:42:37.182Z,327.27
2019-01-20T05:45:09.083Z,304.57
2019-01-20T05:47:37.566Z,306.23
2019-01-20T05:50:09.339Z,305.10
2019-01-20T05:52:37.743Z,275.93
2019-01-20T05:55:08.835Z,298.00
2019-01-20T05:57:37.395Z,282.80
2019-01-20T06:00:20.403Z,265.43
2019-01-20T06:02:48.814Z,265.10
2019-01-20T06:05:17.370Z,259.03
2019-01-20T06:07:45.804Z,233.37
2019-01-20T06:10:14.377Z,236.77
2019-01-20T06:12:42.775Z,232.23
2019-01-20T06:15:14.058Z,239.93
2019-01-20T06:17:42.459Z,246.47
2019-01-20T06:20:10.845Z,234.80
2019-01-20T06:22:39.306Z,245.80
2019-01-20T06:25:09.403Z,231.83
2019-01-20T06:27:38.087Z,246.33
2019-01-20T06:30:12.633Z,246.83
2019-01-20T06:32:41.027Z,241.00
2019-01-20T06:35:09.463Z,239.67
2019-01-20T06:37:37.900Z,256.68
2019-01-20T06:40:07.835Z,241.67
2019-01-20T06:42:36.231Z,239.07
2019-01-20T06:45:07.943Z,118.00
2019-01-20T06:47:36.319Z,126.17
2019-01-20T06:50:08.270Z,247.90
2019-01-20T06:52:36.706Z,225.07
2019-01-20T06:55:06.649Z,188.50
2019-01-20T06:57:35.117Z,182.03
2019-01-20T07:00:05.082Z,176.53
2019-01-20T07:02:33.640Z,179.43
2019-01-20T07:05:02.043Z,182.90
2019-01-20T07:07:30.468Z,239.77
2019-01-20T07:09:58.941Z,265.10
2019-01-20T07:12:27.410Z,234.67
2019-01-20T07:14:55.887Z,217.17
2019-01-20T07:17:24.296Z,176.47
2019-01-20T07:19:52.831Z,131.60
2019-01-20T07:22:21.263Z,126.63
2019-01-20T07:24:49.663Z,123.00
2019-01-20T07:27:19.008Z,135.20
2019-01-20T07:29:47.479Z,172.57
2019-01-20T07:32:16.859Z,220.70
2019-01-20T07:34:45.255Z,217.90
2019-01-20T07:37:13.688Z,221.77
2019-01-20T07:39:42.230Z,209.13
2019-01-20T07:42:10.798Z,249.83
2019-01-20T07:44:39.246Z,247.77
2019-01-20T07:47:08.054Z,222.43
2019-01-20T07:49:36.778Z,192.07
2019-01-20T07:52:05.293Z,200.37
2019-01-20T07:54:33.695Z,209.70
2019-01-20T07:57:02.373Z,204.73
2019-01-20T07:59:31.088Z,223.57
2019-01-20T08:02:17.576Z,218.00
2019-01-20T08:04:46.018Z,245.90
2019-01-20T08:07:14.478Z,300.57
2019-01-20T08:09:43.090Z,263.80
2019-01-20T08:12:11.846Z,236.77
2019-01-20T08:14:40.643Z,234.57
2019-01-20T08:17:09.057Z,223.40
2019-01-20T08:19:37.501Z,262.03
2019-01-20T08:22:06.126Z,190.53
2019-01-20T08:24:34.537Z,231.57
2019-01-20T08:27:03.048Z,270.60
2019-01-20T08:29:32.636Z,213.33
2019-01-20T08:32:01.733Z,174.63
2019-01-20T08:34:30.349Z,165.30
2019-01-20T08:36:58.939Z,174.03
2019-01-20T08:40:04.049Z,163.47
2019-01-20T08:42:32.436Z,152.30
2019-01-20T08:45:00.834Z,142.93
2019-01-20T08:47:31.022Z,122.00
2019-01-20T08:50:00.004Z,124.20
2019-01-20T08:52:28.716Z,115.03
2019-01-20T08:54:57.525Z,138.03
2019-01-20T08:57:25.992Z,111.30
2019-01-20T08:59:54.496Z,165.77
2019-01-20T09:02:23.224Z,168.00
2019-01-20T09:04:51.905Z,146.90
2019-01-20T09:07:20.423Z,162.03
2019-01-20T09:09:49.147Z,145.00
2019-01-20T09:12:17.757Z,149.80
2019-01-20T09:14:46.395Z,119.17
2019-01-20T09:17:15.278Z,121.87
2019-01-20T09:19:43.976Z,100.80
2019-01-20T09:22:12.569Z,97.80
2019-01-20T09:24:41.788Z,86.70
2019-01-20T09:27:10.209Z,101.13
2019-01-20T09:29:38.989Z,65.53
2019-01-20T09:32:08.335Z,43.17
2019-01-20T09:34:37.171Z,77.50
2019-01-20T09:37:05.635Z,154.57
2019-01-20T09:39:34.095Z,169.97
2019-01-20T09:42:02.824Z,156.00
2019-01-20T09:44:31.622Z,149.20
2019-01-20T09:47:00.288Z,112.13
2019-01-20T09:49:28.839Z,161.80
2019-01-20T09:51:57.450Z,73.77
2019-01-20T09:54:26.417Z,130.83
2019-01-20T09:56:54.896Z,177.83
2019-01-20T09:59:23.361Z,184.20
2019-01-20T10:01:51.995Z,171.67
2019-01-20T10:04:20.920Z,123.40
2019-01-20T10:06:49.940Z,94.13
2019-01-20T10:09:18.691Z,100.17
2019-01-20T10:11:47.428Z,91.67
2019-01-20T10:14:16.219Z,57.83
2019-01-20T10:16:46.910Z,67.93
2019-01-20T10:19:15.288Z,72.57
2019-01-20T10:21:43.757Z,72.33
2019-01-20T10:24:12.555Z,58.27
2019-01-20T10:26:41.314Z,54.53
2019-01-20T10:29:09.841Z,43.10
2019-01-20T10:31:38.501Z,32.60
2019-01-20T10:34:07.992Z,41.53
2019-01-20T10:36:36.921Z,33.50
2019-01-20T10:39:09.671Z,40.90
2019-01-20T10:41:38.367Z,39.73
2019-01-20T10:44:07.456Z,36.47
2019-01-20T10:46:36.035Z,39.33
2019-01-20T10:49:05.357Z,41.23
2019-01-20T10:51:35.015Z,42.20
2019-01-20T10:54:04.257Z,52.40
2019-01-20T10:56:32.992Z,46.87
2019-01-20T10:59:02.085Z,45.23
2019-01-20T11:01:32.366Z,48.20
2019-01-20T11:04:02.212Z,60.33
2019-01-20T11:06:31.771Z,49.50
2019-01-20T11:09:00.344Z,56.80
2019-01-20T11:11:29.015Z,53.60
2019-01-20T11:14:02.069Z,52.03
2019-01-20T11:16:30.769Z,48.20
2019-01-20T11:19:00.259Z,54.37
2019-01-20T11:21:29.890Z,73.77
2019-01-20T11:24:05.057Z,67.57
2019-01-20T11:26:35.426Z,70.27
2019-01-20T11:29:03.815Z,78.53
2019-01-20T11:31:32.558Z,73.03
2019-01-20T11:34:01.180Z,65.33
2019-01-20T11:36:30.133Z,54.53
2019-01-20T11:39:00.992Z,58.97
2019-01-20T11:41:30.800Z,55.13
2019-01-20T11:44:00.033Z,66.90
2019-01-20T11:46:29.691Z,68.93
2019-01-20T11:48:58.291Z,60.50
2019-01-20T11:51:29.327Z,63.13
2019-01-20T11:54:01.471Z,62.90
2019-01-20T11:56:30.508Z,65.63
2019-01-20T11:58:59.698Z,61.63
2019-01-20T12:01:28.239Z,73.93
2019-01-20T12:03:57.541Z,59.03
2019-01-20T12:06:29.836Z,64.70
2019-01-20T12:08:58.458Z,69.27
2019-01-20T12:11:31.307Z,89.23
2019-01-20T12:14:01.958Z,80.17
2019-01-20T12:16:36.538Z,75.57
2019-01-20T12:19:09.980Z,85.40
2019-01-20T12:21:40.759Z,83.60
2019-01-20T12:24:13.235Z,77.20
2019-01-20T12:26:46.215Z,82.40
2019-01-20T12:29:15.723Z,82.63
2019-01-20T12:31:44.748Z,93.37
2019-01-20T12:34:17.236Z,94.47
2019-01-20T12:36:49.702Z,103.33
2019-01-20T12:39:19.992Z,91.30
2019-01-20T12:41:50.540Z,105.43
2019-01-20T12:44:22.512Z,111.30
2019-01-20T12:47:00.637Z,100.90
2019-01-20T12:49:40.468Z,87.37
2019-01-20T12:52:16.379Z,92.23
2019-01-20T12:55:03.044Z,101.67
2019-01-20T12:57:37.716Z,97.97
2019-01-20T13:00:20.769Z,109.13
2019-01-20T13:02:55.068Z,120.33
2019-01-20T13:05:28.838Z,104.47
2019-01-20T13:07:59.966Z,106.13
2019-01-20T13:10:31.671Z,176.47
2019-01-20T13:13:05.202Z,130.47
2019-01-20T13:15:37.364Z,125.70
2019-01-20T13:18:12.147Z,121.67
2019-01-20T13:20:45.370Z,127.43
2019-01-20T13:23:16.526Z,142.03
2019-01-20T13:25:49.884Z,144.67
2019-01-20T13:28:31.476Z,133.13
2019-01-20T13:31:04.626Z,130.53
2019-01-20T13:33:34.715Z,146.77
2019-01-20T13:36:07.070Z,400.23
2019-01-20T13:38:34.868Z,395.70
2019-01-20T13:41:03.517Z,195.27
2019-01-20T13:43:32.191Z,166.27
2019-01-20T13:46:00.845Z,173.90
2019-01-20T13:48:29.416Z,155.70
2019-01-20T13:50:58.403Z,168.50
2019-01-20T13:53:26.856Z,252.60
2019-01-20T13:56:01.183Z,280.23
2019-01-20T13:58:26.258Z,290.97
2019-01-20T14:00:56.025Z,255.40
2019-01-20T14:03:24.776Z,181.80
2019-01-20T14:05:53.316Z,190.17
2019-01-20T14:08:22.087Z,228.97
2019-01-20T14:10:52.332Z,447.97
2019-01-20T14:13:20.744Z,426.90
2019-01-20T14:15:51.138Z,337.20
2019-01-20T14:18:20.299Z,349.10
2019-01-20T14:20:48.980Z,498.43
2019-01-20T14:23:17.463Z,399.30
2019-01-20T14:25:46.026Z,344.80
2019-01-20T14:28:15.017Z,261.57
2019-01-20T14:30:43.922Z,274.77
2019-01-20T14:33:12.433Z,199.63
2019-01-20T14:35:41.043Z,199.03
2019-01-20T14:38:09.547Z,189.47
2019-01-20T14:40:38.607Z,155.03
2019-01-20T14:43:08.216Z,152.30
2019-01-20T14:45:37.004Z,198.40
2019-01-20T14:48:05.629Z,212.87
2019-01-20T14:50:34.236Z,178.43
2019-01-20T14:53:02.730Z,183.00
2019-01-20T14:55:31.618Z,161.03
2019-01-20T14:58:00.444Z,196.57
2019-01-20T15:00:34.573Z,184.43
2019-01-20T15:03:03.179Z,181.70
2019-01-20T15:05:31.534Z,185.73
2019-01-20T15:08:00.135Z,154.57
2019-01-20T15:10:29.070Z,146.37
2019-01-20T15:12:57.513Z,153.23
2019-01-20T15:15:29.152Z,154.33
2019-01-20T15:17:57.723Z,148.00
2019-01-20T15:20:26.141Z,147.37
2019-01-20T15:22:54.589Z,140.57
2019-01-20T15:25:23.372Z,141.50
2019-01-20T15:27:51.909Z,195.13
2019-01-20T15:30:22.880Z,154.27
2019-01-20T15:32:51.329Z,149.93
2019-01-20T15:35:19.871Z,181.60
2019-01-20T15:37:48.269Z,191.87
2019-01-20T15:40:21.803Z,199.70
2019-01-20T15:42:50.548Z,171.50
2019-01-20T15:45:21.855Z,149.77
2019-01-20T15:47:50.428Z,151.17
2019-01-20T15:50:24.270Z,213.20
2019-01-20T15:52:52.758Z,198.50
2019-01-20T15:55:21.617Z,196.80
2019-01-20T15:57:50.021Z,206.87
2019-01-20T16:00:27.090Z,213.77
2019-01-20T16:02:55.473Z,214.43
2019-01-20T16:05:24.728Z,189.47
2019-01-20T16:07:53.496Z,197.40
2019-01-20T16:10:22.311Z,198.77
2019-01-20T16:12:50.928Z,222.00
2019-01-20T16:15:25.372Z,205.43
2019-01-20T16:17:55.102Z,276.30
2019-01-20T16:20:24.191Z,597.23
2019-01-20T16:22:53.243Z,619.23
2019-01-20T16:25:27.510Z,478.83
2019-01-20T16:27:55.998Z,316.70
2019-01-20T16:30:27.270Z,225.07
2019-01-20T16:32:55.887Z,217.33
2019-01-20T16:35:25.195Z,228.60
2019-01-20T16:37:54.284Z,300.20
2019-01-20T16:40:24.635Z,200.50
2019-01-20T16:42:53.298Z,202.77
2019-01-20T16:45:32.845Z,220.17
2019-01-20T16:47:59.217Z,225.17
2019-01-20T16:50:27.633Z,239.13
2019-01-20T16:52:56.086Z,254.53
2019-01-20T16:55:24.715Z,315.57
2019-01-20T16:57:53.326Z,318.80
2019-01-20T17:00:26.202Z,311.47
2019-01-20T17:02:56.630Z,268.50
2019-01-20T17:05:27.026Z,219.97
2019-01-20T17:07:56.409Z,202.57
2019-01-20T17:10:34.756Z,210.03
2019-01-20T17:13:05.934Z,193.77
2019-01-20T17:15:39.838Z,192.23
2019-01-20T17:18:08.529Z,208.27
2019-01-20T17:20:36.975Z,238.73
2019-01-20T17:23:05.599Z,222.00
2019-01-20T17:25:34.552Z,219.23
2019-01-20T17:28:04.672Z,269.17
2019-01-20T17:30:35.518Z,271.10
2019-01-20T17:33:05.743Z,342.40
2019-01-20T17:35:34.445Z,259.57
2019-01-20T17:38:03.339Z,267.47
2019-01-20T17:40:32.682Z,249.27
2019-01-20T17:43:02.285Z,243.60
2019-01-20T17:45:34.723Z,236.57
2019-01-20T17:48:06.255Z,245.00
2019-01-20T17:50:37.947Z,249.60
2019-01-20T17:53:08.528Z,244.20
2019-01-20T17:55:37.401Z,243.07
2019-01-20T17:58:06.692Z,241.30
2019-01-20T18:00:40.302Z,279.57
2019-01-20T18:03:09.644Z,304.00
2019-01-20T18:05:38.119Z,283.70
2019-01-20T18:08:06.672Z,296.17
2019-01-20T18:10:35.240Z,255.97
2019-01-20T18:13:03.763Z,224.27
2019-01-20T18:15:32.450Z,216.40
2019-01-20T18:18:00.972Z,213.07
2019-01-20T18:20:31.769Z,238.50
2019-01-20T18:23:00.476Z,204.80
2019-01-20T18:25:29.215Z,190.03
2019-01-20T18:27:58.121Z,195.07
2019-01-20T18:30:28.838Z,166.77
2019-01-20T18:32:57.615Z,212.80
2019-01-20T18:35:27.588Z,229.93
2019-01-20T18:37:56.615Z,207.70
2019-01-20T18:40:26.439Z,192.57
2019-01-20T18:42:54.947Z,194.97
2019-01-20T18:45:26.673Z,182.67
2019-01-20T18:47:55.455Z,175.43
2019-01-20T18:50:27.884Z,171.00
2019-01-20T18:52:56.647Z,212.83
2019-01-20T18:55:25.326Z,196.30
2019-01-20T18:57:54.217Z,202.90
2019-01-20T19:00:31.775Z,191.13
2019-01-20T19:03:01.030Z,188.00
2019-01-20T19:05:30.642Z,190.17
2019-01-20T19:07:59.606Z,175.70
2019-01-20T19:10:28.496Z,173.80
2019-01-20T19:12:56.897Z,156.97
2019-01-20T19:15:25.734Z,193.33
2019-01-20T19:17:54.754Z,347.17
2019-01-20T19:20:25.529Z,405.57
2019-01-20T19:22:56.763Z,480.00
2019-01-20T19:25:25.411Z,321.10
2019-01-20T19:27:53.963Z,296.13
2019-01-20T19:30:27.943Z,303.57
2019-01-20T19:32:56.371Z,313.13
2019-01-20T19:35:25.000Z,315.73
2019-01-20T19:37:53.716Z,321.33
2019-01-20T19:40:22.308Z,295.97
2019-01-20T19:42:50.757Z,275.47
2019-01-20T19:45:20.642Z,274.10
2019-01-20T19:47:49.305Z,274.30
2019-01-20T19:50:18.331Z,304.97
2019-01-20T19:52:47.889Z,279.00
2019-01-20T19:55:24.018Z,264.60
2019-01-20T19:57:52.895Z,277.10
2019-01-20T20:00:24.126Z,280.33
2019-01-20T20:02:52.739Z,233.40
2019-01-20T20:05:22.127Z,216.03
2019-01-20T20:07:51.450Z,245.57
2019-01-20T20:10:22.460Z,404.07
2019-01-20T20:12:51.078Z,358.33
2019-01-20T20:15:22.562Z,366.07
2019-01-20T20:17:51.668Z,344.97
2019-01-20T20:20:21.278Z,345.77
2019-01-20T20:22:50.464Z,318.03
2019-01-20T20:25:20.623Z,298.30
2019-01-20T20:27:49.462Z,309.63
2019-01-20T20:30:24.255Z,349.77
2019-01-20T20:32:52.767Z,308.03
2019-01-20T20:35:21.103Z,282.60
2019-01-20T20:37:49.658Z,294.57
2019-01-20T20:40:19.751Z,295.97
2019-01-20T20:42:48.527Z,356.73
2019-01-20T20:45:19.520Z,288.83
2019-01-20T20:47:48.228Z,263.83
2019-01-20T20:50:17.640Z,270.73
2019-01-20T20:52:46.771Z,258.23
2019-01-20T20:55:17.948Z,246.97
2019-01-20T20:57:46.790Z,260.63
2019-01-20T21:00:33.852Z,257.57
2019-01-20T21:03:05.273Z,284.80
2019-01-20T21:05:34.105Z,282.97
2019-01-20T21:08:03.185Z,260.07
2019-01-20T21:10:31.911Z,275.83
2019-01-20T21:13:00.396Z,298.43
2019-01-20T21:15:29.280Z,329.10
2019-01-20T21:17:57.726Z,396.23
2019-01-20T21:20:26.126Z,385.30
2019-01-20T21:22:54.725Z,331.97
2019-01-20T21:25:23.351Z,286.20
2019-01-20T21:27:51.813Z,286.30
2019-01-20T21:30:28.213Z,301.50
2019-01-20T21:32:56.684Z,260.23
2019-01-20T21:35:25.331Z,259.63
2019-01-20T21:37:54.291Z,334.07
2019-01-20T21:40:22.691Z,289.47
2019-01-20T21:42:51.099Z,299.57
2019-01-20T21:45:19.922Z,296.90
2019-01-20T21:47:48.732Z,288.50
2019-01-20T21:50:25.878Z,281.87
2019-01-20T21:52:54.616Z,293.33
2019-01-20T21:55:24.033Z,275.53
2019-01-20T21:57:52.544Z,240.90
2019-01-20T22:00:23.183Z,238.10
2019-01-20T22:02:51.652Z,213.03
2019-01-20T22:05:20.123Z,199.90
2019-01-20T22:07:48.658Z,176.97
2019-01-20T22:10:19.075Z,195.70
2019-01-20T22:12:48.058Z,202.17
2019-01-20T22:15:16.727Z,207.07
2019-01-20T22:17:46.128Z,187.27
2019-01-20T22:20:19.417Z,246.13
2019-01-20T22:22:47.820Z,248.50
2019-01-20T22:25:16.218Z,238.10
2019-01-20T22:27:44.677Z,240.93
2019-01-20T22:30:18.138Z,255.10
2019-01-20T22:32:46.848Z,204.03
2019-01-20T22:35:15.394Z,227.60
2019-01-20T22:37:43.900Z,239.27
2019-01-20T22:40:17.167Z,220.93
2019-01-20T22:42:45.675Z,230.63
2019-01-20T22:45:16.646Z,263.07
2019-01-20T22:47:45.032Z,226.10
2019-01-20T22:50:14.102Z,198.40
2019-01-20T22:52:42.690Z,182.73
2019-01-20T22:55:14.672Z,187.57
2019-01-20T22:57:44.167Z,189.30
2019-01-20T23:00:15.829Z,181.60
2019-01-20T23:02:44.303Z,201.00
2019-01-20T23:05:12.964Z,238.97
2019-01-20T23:07:41.573Z,214.13
2019-01-20T23:10:09.971Z,221.20
2019-01-20T23:12:38.415Z,208.83
2019-01-20T23:15:09.413Z,199.53
2019-01-20T23:17:37.823Z,196.67
2019-01-20T23:20:15.359Z,210.90
2019-01-20T23:22:43.790Z,194.30
2019-01-20T23:25:12.397Z,186.77
2019-01-20T23:27:40.958Z,200.53
2019-01-20T23:30:12.379Z,237.37
2019-01-20T23:32:40.775Z,284.33
2019-01-20T23:35:09.361Z,191.87
2019-01-20T23:37:37.767Z,239.63
2019-01-20T23:40:09.642Z,235.40
2019-01-20T23:42:38.260Z,251.23
2019-01-20T23:45:09.404Z,230.93
2019-01-20T23:47:37.804Z,212.73
2019-01-20T23:50:09.709Z,194.10
2019-01-20T23:52:38.290Z,184.77
2019-01-20T23:55:19.430Z,180.77
2019-01-20T23:58:37.793Z,167.87
